Time;durP1;ratioP1;P1;durP2;ratioP2;P2;SDS_P1;SDS_P2;PMS_P1;PMS_P2;Temp;Humidity;BMP_temperature;BMP_pressure;BME280_temperature;BME280_humidity;BME280_pressure;Samples;Min_cycle;Max_cycle;Signal;HPM_P1;HPM_P2
2023/06/26 00:04:45;;;;;;;9.43;5.45;;;;;;;-145.68;100.00;73607.72;10578577;28;20273;-73
2023/06/26 00:09:45;;;;;;;8.68;6.22;;;;;;;-145.68;100.00;73615.72;10578156;28;20247;-73
2023/06/26 00:14:46;;;;;;;10.05;5.75;;;;;;;-145.68;100.00;73625.72;10578215;28;20677;-73
2023/06/26 00:19:47;;;;;;;6.65;5.60;;;;;;;-145.68;100.00;73623.72;10559072;28;20197;-73
2023/06/26 00:24:47;;;;;;;10.60;5.55;;;;;;;-145.68;100.00;73615.72;10559727;28;20182;-73
2023/06/26 00:29:47;;;;;;;6.95;6.07;;;;;;;-145.68;100.00;73621.72;10577557;28;20216;-73
2023/06/26 00:34:48;;;;;;;6.57;5.45;;;;;;;-145.68;100.00;73617.72;10576864;28;20324;-73
2023/06/26 00:39:50;;;;;;;9.57;5.50;;;;;;;-145.68;100.00;73607.72;10558552;28;20216;-73
2023/06/26 00:44:50;;;;;;;7.30;6.32;;;;;;;-145.68;100.00;73613.72;10577084;28;20214;-73
2023/06/26 00:49:51;;;;;;;10.02;5.80;;;;;;;-145.68;100.00;73611.72;10576583;28;20194;-73
2023/06/26 00:54:52;;;;;;;10.18;5.82;;;;;;;-145.68;100.00;73625.72;10558108;28;20186;-73
2023/06/26 00:59:52;;;;;;;8.55;6.35;;;;;;;-145.68;100.00;73627.72;10575905;28;20197;-73
2023/06/26 01:04:55;;;;;;;7.25;5.68;;;;;;;-145.68;100.00;73633.72;10557800;28;20716;-73
2023/06/26 01:09:56;;;;;;;6.22;5.60;;;;;;;-145.68;100.00;73627.72;10558114;28;20189;-73
2023/06/26 01:14:56;;;;;;;6.20;5.18;;;;;;;-145.68;100.00;73619.72;10558182;28;20193;-73
2023/06/26 01:20:02;;;;;;;7.30;6.00;;;;;;;-145.68;100.00;73619.72;10576030;28;20182;-74
2023/06/26 01:25:17;;;;;;;9.40;6.10;;;;;;;-145.68;100.00;73611.72;10541428;28;20217;-73
2023/06/26 01:30:19;;;;;;;7.97;6.07;;;;;;;-145.68;100.00;73597.75;10557866;28;20265;-74
2023/06/26 01:35:19;;;;;;;8.75;5.97;;;;;;;-145.68;100.00;73587.75;10557381;28;20218;-73
2023/06/26 01:40:20;;;;;;;7.63;6.25;;;;;;;-145.68;100.00;73581.75;10575688;28;20221;-73
2023/06/26 01:45:25;;;;;;;13.27;6.68;;;;;;;-145.68;100.00;73567.75;10575535;28;20217;-74
2023/06/26 01:50:28;;;;;;;9.35;6.22;;;;;;;-145.68;100.00;73569.75;10575791;28;20719;-73
2023/06/26 01:55:50;;;;;;;6.88;5.63;;;;;;;-145.68;100.00;73563.75;10575889;28;20182;-73
2023/06/26 02:00:51;;;;;;;8.38;6.22;;;;;;;-145.68;100.00;73565.75;10550239;28;20324;-73
2023/06/26 02:05:51;;;;;;;10.98;6.78;;;;;;;-145.68;100.00;73557.75;10535015;28;20223;-73
2023/06/26 02:10:51;;;;;;;8.75;6.50;;;;;;;-145.68;100.00;73559.75;10522657;28;20191;-73
2023/06/26 02:15:52;;;;;;;10.60;6.20;;;;;;;-145.68;100.00;73553.75;10540557;28;20579;-73
2023/06/26 02:20:52;;;;;;;10.13;7.00;;;;;;;-145.68;100.00;73559.75;10521854;28;20193;-73
2023/06/26 02:25:55;;;;;;;7.13;6.20;;;;;;;-145.68;100.00;73559.75;10540452;28;20297;-73
2023/06/26 02:30:56;;;;;;;6.35;5.75;;;;;;;-145.68;100.00;73555.75;10520758;28;20222;-73
2023/06/26 02:35:58;;;;;;;7.30;6.20;;;;;;;-145.68;100.00;73551.75;10555641;28;20178;-73
2023/06/26 02:40:59;;;;;;;8.13;6.50;;;;;;;-145.68;100.00;73545.78;10539075;28;20210;-73
2023/06/26 02:46:00;;;;;;;7.35;6.28;;;;;;;-145.68;100.00;73533.78;10537889;28;20242;-73
2023/06/26 02:51:00;;;;;;;6.63;5.72;;;;;;;-145.68;100.00;73515.78;10520988;28;20728;-73
2023/06/26 02:56:04;;;;;;;7.13;5.57;;;;;;;-145.68;100.00;73507.78;10520631;28;20197;-73
2023/06/26 03:01:05;;;;;;;8.80;6.20;;;;;;;-145.68;100.00;73497.78;10554452;28;20256;-73
2023/06/26 03:06:07;;;;;;;8.02;6.00;;;;;;;-145.68;100.00;73505.78;10517800;28;20280;-73
2023/06/26 03:11:09;;;;;;;9.05;6.93;;;;;;;-145.68;100.00;73519.78;10515653;28;20195;-73
2023/06/26 03:16:10;;;;;;;10.63;7.22;;;;;;;-145.68;100.00;73527.78;10498296;28;20727;-73
2023/06/26 03:21:11;;;;;;;10.02;7.70;;;;;;;-145.68;100.00;73519.78;10514534;28;20182;-73
2023/06/26 03:26:14;;;;;;;9.13;6.38;;;;;;;-145.68;100.00;73519.78;10515421;28;20214;-72
2023/06/26 03:31:14;;;;;;;8.13;6.72;;;;;;;-145.68;100.00;73489.81;10532581;28;20222;-73
2023/06/26 03:36:16;;;;;;;8.70;6.05;;;;;;;-145.68;100.00;73471.81;10523341;28;20202;-74
2023/06/26 03:41:16;;;;;;;9.85;6.70;;;;;;;-145.68;100.00;73463.81;10514544;28;20604;-73
2023/06/26 03:46:17;;;;;;;9.88;6.15;;;;;;;-145.68;100.00;73443.84;10514388;28;20686;-73
2023/06/26 03:51:18;;;;;;;8.38;7.22;;;;;;;-145.68;100.00;73415.84;10513822;28;20300;-73
2023/06/26 03:56:18;;;;;;;8.02;6.13;;;;;;;-145.68;100.00;73379.88;10532018;28;20670;-73
2023/06/26 04:01:21;;;;;;;8.20;6.60;;;;;;;-145.68;100.00;73339.91;10514008;28;20276;-73
2023/06/26 04:06:21;;;;;;;9.95;6.18;;;;;;;-145.68;100.00;73283.94;10518369;28;20214;-73
2023/06/26 04:11:22;;;;;;;6.72;6.03;;;;;;;-145.68;100.00;73243.97;10517392;28;20247;-73
2023/06/26 04:16:25;;;;;;;6.78;5.78;;;;;;;-145.68;98.07;73213.97;10535968;28;20182;-73
2023/06/26 04:21:25;;;;;;;8.07;6.30;;;;;;;-145.68;96.04;73186.00;10535304;28;20210;-73
2023/06/26 04:26:27;;;;;;;9.00;5.85;;;;;;;-145.68;91.18;73138.03;10534821;28;20321;-73
2023/06/26 04:31:27;;;;;;;6.75;5.43;;;;;;;-145.68;86.59;73092.06;10534635;28;20256;-73
2023/06/26 04:36:28;;;;;;;7.63;5.80;;;;;;;-145.68;83.41;73050.09;10535328;28;20190;-73
2023/06/26 04:41:28;;;;;;;7.03;5.53;;;;;;;-145.68;79.97;73006.13;10534588;28;20763;-73
2023/06/26 04:46:29;;;;;;;6.50;4.80;;;;;;;-145.68;76.31;72958.16;10534489;28;20210;-73
2023/06/26 04:51:29;;;;;;;7.80;5.38;;;;;;;-145.68;74.20;72928.19;10534427;28;20285;-73
2023/06/26 04:56:30;;;;;;;6.65;4.68;;;;;;;-145.68;72.21;72892.22;10534197;28;20228;-73
2023/06/26 05:01:32;;;;;;;8.20;4.68;;;;;;;-145.68;70.89;72856.22;10534211;28;20714;-73
2023/06/26 05:06:32;;;;;;;7.93;5.10;;;;;;;-145.68;69.22;72816.25;10568871;28;20379;-73
2023/06/26 05:11:32;;;;;;;5.50;4.85;;;;;;;-145.68;66.92;72780.28;10574007;28;20186;-72
2023/06/26 05:16:34;;;;;;;4.57;3.85;;;;;;;-145.68;65.88;72732.34;10575087;28;20182;-73
2023/06/26 05:21:34;;;;;;;5.45;3.75;;;;;;;-145.68;63.51;72680.38;10574540;28;20185;-73
2023/06/26 05:26:35;;;;;;;5.05;4.07;;;;;;;-145.68;63.47;72648.41;10556166;28;20233;-73
2023/06/26 05:31:40;;;;;;;5.57;3.97;;;;;;;-145.68;60.74;72600.44;10573641;28;20705;-73
2023/06/26 05:36:43;;;;;;;5.00;4.35;;;;;;;-145.68;61.33;72624.41;10573821;28;20689;-72
2023/06/26 05:41:47;;;;;;;5.57;4.53;;;;;;;-145.68;62.20;72614.44;10562948;28;20186;-73
2023/06/26 05:46:47;;;;;;;4.88;3.92;;;;;;;-145.68;61.43;72600.44;10582555;28;20217;-73
2023/06/26 05:51:47;;;;;;;5.10;4.35;;;;;;;-145.68;60.17;72568.47;10581624;28;20181;-73
2023/06/26 05:56:48;;;;;;;4.30;3.85;;;;;;;-145.68;59.02;72516.50;10582423;28;20194;-73
2023/06/26 06:01:48;;;;;;;4.53;4.13;;;;;;;-145.68;58.28;72484.53;10581129;28;20548;-73
2023/06/26 06:06:49;;;;;;;7.22;4.38;;;;;;;-145.68;56.78;72420.59;10581900;28;20244;-73
2023/06/26 06:11:49;;;;;;;5.05;4.20;;;;;;;-145.68;54.79;72364.63;10581115;28;20201;-73
2023/06/26 06:16:49;;;;;;;4.43;3.90;;;;;;;-145.68;55.21;72332.66;10570007;28;20280;-73
2023/06/26 06:21:50;;;;;;;4.72;3.80;;;;;;;-145.68;53.82;72284.72;10538444;28;20236;-73
2023/06/26 06:26:50;;;;;;;4.72;4.25;;;;;;;-145.68;52.61;72226.75;10538748;28;20222;-73
2023/06/26 06:31:51;;;;;;;6.63;4.50;;;;;;;-145.68;52.39;72208.78;10538286;28;20699;-73
2023/06/26 06:36:51;;;;;;;4.97;4.47;;;;;;;-145.68;49.37;72080.91;10537781;28;20554;-74
2023/06/26 06:41:52;;;;;;;4.97;4.32;;;;;;;-145.68;48.12;72032.94;10537975;28;20536;-74
2023/06/26 06:46:52;;;;;;;5.65;4.30;;;;;;;-145.68;45.48;71967.00;10537975;28;20214;-73
2023/06/26 06:51:52;;;;;;;4.00;3.60;;;;;;;-145.68;46.28;71953.03;10536441;28;20190;-73
2023/06/26 06:56:53;;;;;;;5.28;3.92;;;;;;;-145.68;44.62;71875.09;10537760;28;20198;-73
2023/06/26 07:01:53;;;;;;;4.93;4.38;;;;;;;-145.68;44.90;71851.13;10536877;28;20251;-73
2023/06/26 07:06:54;;;;;;;6.03;4.50;;;;;;;-145.68;44.51;71781.19;10537208;28;20222;-71
2023/06/26 07:11:54;;;;;;;5.47;4.10;;;;;;;-145.68;45.31;72004.97;10536835;28;20239;-72
2023/06/26 07:16:54;;;;;;;4.87;4.33;;;;;;;-145.68;44.29;71889.09;10537138;28;20655;-72
2023/06/26 07:21:55;;;;;;;6.15;4.50;;;;;;;-145.68;41.77;71765.22;10536043;28;21106;-72
2023/06/26 07:26:55;;;;;;;5.32;4.50;;;;;;;-145.68;42.70;71855.13;10536571;28;20237;-72
2023/06/26 07:31:56;;;;;;;6.45;4.45;;;;;;;-145.68;42.58;71769.22;10535660;28;20225;-72
2023/06/26 07:36:56;;;;;;;5.25;4.75;;;;;;;-145.68;44.25;71977.00;10563661;28;20704;-72
2023/06/26 07:41:59;;;;;;;5.18;4.60;;;;;;;-145.68;44.42;71965.00;10575503;28;20272;-72
2023/06/26 07:46:59;;;;;;;5.95;4.35;;;;;;;-145.68;43.01;71809.16;10575868;28;20222;-72
2023/06/26 07:51:59;;;;;;;5.28;4.60;;;;;;;-145.68;41.68;71771.22;10574771;28;20183;-72
2023/06/26 07:57:02;;;;;;;5.00;4.50;;;;;;;-145.68;42.91;71847.13;10574342;28;20190;-71
2023/06/26 08:02:03;;;;;;;8.20;5.22;;;;;;;-145.68;43.68;71929.06;10576925;27;20205;-71
2023/06/26 08:07:03;;;;;;;5.70;4.43;;;;;;;-145.68;42.86;71855.13;10578046;27;20218;-72
2023/06/26 08:12:04;;;;;;;5.70;4.18;;;;;;;-145.68;42.83;71743.25;10574522;28;20190;-71
2023/06/26 08:17:04;;;;;;;7.40;4.50;;;;;;;-145.68;42.75;71819.16;10573696;28;20597;-72
2023/06/26 08:22:05;;;;;;;6.07;4.78;;;;;;;-145.68;43.02;71763.22;10555820;28;20197;-71
2023/06/26 08:27:07;;;;;;;6.85;4.47;;;;;;;-145.68;41.79;71737.25;10573645;28;20547;-72
2023/06/26 08:32:07;;;;;;;5.20;4.35;;;;;;;-145.68;42.45;71685.31;10572780;28;20299;-72
2023/06/26 08:37:09;;;;;;;5.70;5.20;;;;;;;-145.68;39.26;71497.50;10573350;28;20350;-72
2023/06/26 08:42:09;;;;;;;5.53;4.90;;;;;;;-145.68;40.35;71645.34;10573812;28;20428;-72
2023/06/26 08:47:11;;;;;;;5.10;4.60;;;;;;;-145.68;37.48;71367.66;10557363;28;20720;-73
2023/06/26 08:52:23;;;;;;;5.07;4.20;;;;;;;-145.68;36.16;71217.81;10556263;28;20196;-72
2023/06/26 08:57:24;;;;;;;6.68;4.63;;;;;;;-145.68;40.65;71629.38;10574247;28;20185;-72
2023/06/26 09:02:25;;;;;;;6.50;5.05;;;;;;;-145.68;40.97;71643.34;10573577;28;20553;-72
2023/06/26 09:07:25;;;;;;;6.63;4.45;;;;;;;-145.68;40.98;71583.41;10573801;28;20213;-72
2023/06/26 09:12:29;;;;;;;5.73;4.87;;;;;;;-145.68;38.73;71431.56;10572873;28;20200;-73
2023/06/26 09:17:30;;;;;;;4.43;4.03;;;;;;;-145.68;35.22;71165.88;10554837;28;20812;-73
2023/06/26 09:22:33;;;;;;;6.85;4.40;;;;;;;-145.68;34.77;71153.91;10572924;28;20194;-73
2023/06/26 09:27:34;;;;;;;4.80;4.30;;;;;;;-145.68;33.79;71060.00;10573981;28;20249;-73
2023/06/26 09:32:39;;;;;;;7.55;4.70;;;;;;;-145.68;37.55;71457.56;10572360;28;20233;-73
2023/06/26 09:37:40;;;;;;;7.05;4.60;;;;;;;-145.68;38.72;71449.56;10574577;28;20209;-73
2023/06/26 09:42:41;;;;;;;5.07;4.57;;;;;;;-145.68;37.79;71479.53;10573100;28;20734;-73
2023/06/26 09:47:44;;;;;;;5.22;4.72;;;;;;;-145.68;39.49;71553.44;10573644;28;20268;-73
2023/06/26 09:52:44;;;;;;;5.35;4.47;;;;;;;-145.68;36.72;71337.69;10573827;28;20563;-73
2023/06/26 09:57:46;;;;;;;4.78;4.38;;;;;;;-145.68;37.31;71315.72;10573383;28;20189;-73
2023/06/26 10:02:46;;;;;;;5.72;4.53;;;;;;;-145.68;35.47;71169.88;10573464;28;20620;-73
2023/06/26 10:07:47;;;;;;;4.97;4.03;;;;;;;-145.68;35.17;71279.75;10581795;27;20300;-73
2023/06/26 10:12:49;;;;;;;5.18;4.20;;;;;;;-145.68;36.67;71309.72;10562514;28;20213;-73
2023/06/26 10:17:50;;;;;;;5.20;4.32;;;;;;;-145.68;36.87;71377.63;10578950;28;20642;-73
2023/06/26 10:22:50;;;;;;;4.63;4.22;;;;;;;-145.68;36.59;71271.75;10573443;28;20189;-72
2023/06/26 10:27:54;;;;;;;6.38;4.40;;;;;;;-145.68;39.47;71571.44;10577721;28;20228;-72
2023/06/26 10:32:55;;;;;;;6.05;4.72;;;;;;;-145.68;38.85;71497.50;10580494;28;20238;-73
2023/06/26 10:38:06;;;;;;;6.88;5.00;;;;;;;-145.68;37.71;71351.66;10579879;28;20202;-73
2023/06/26 10:43:08;;;;;;;6.50;4.25;;;;;;;-145.68;38.24;71345.69;10562105;28;20189;-73
2023/06/26 10:48:08;;;;;;;5.60;4.47;;;;;;;-145.68;35.07;71034.03;10580921;28;20230;-73
2023/06/26 10:53:14;;;;;;;4.95;4.45;;;;;;;-145.68;33.98;70990.09;10580387;28;20185;-73
2023/06/26 10:58:31;;;;;;;4.45;4.05;;;;;;;-145.68;33.46;70882.22;10580409;28;20200;-73
2023/06/26 11:03:32;;;;;;;7.10;4.60;;;;;;;-145.68;34.16;71002.09;10580003;28;20197;-73
2023/06/26 11:08:49;;;;;;;7.47;4.15;;;;;;;-145.68;33.34;70954.16;10579485;28;20641;-73
2023/06/26 11:13:49;;;;;;;12.68;4.57;;;;;;;-145.68;34.94;71089.97;10580466;28;20988;-73
2023/06/26 11:18:50;;;;;;;6.82;5.63;;;;;;;-145.68;37.33;71383.63;10579458;28;20192;-73
2023/06/26 11:23:51;;;;;;;5.15;4.53;;;;;;;-145.68;34.80;71058.00;10561660;28;20684;-73
2023/06/26 11:28:57;;;;;;;5.25;4.75;;;;;;;-145.68;32.54;70848.28;10579053;28;20198;-73
2023/06/26 11:33:59;;;;;;;6.10;4.30;;;;;;;-145.68;34.01;70998.09;10579185;28;20226;-73
2023/06/26 11:39:02;;;;;;;5.45;4.40;;;;;;;-145.68;35.56;71157.91;10578749;28;20552;-74
2023/06/26 11:44:04;;;;;;;4.57;4.18;;;;;;;-145.68;33.43;71028.06;10578581;28;20674;-73
2023/06/26 11:49:08;;;;;;;5.45;4.88;;;;;;;-145.68;35.50;71197.84;10578719;28;20186;-72
2023/06/26 11:54:08;;;;;;;7.05;4.53;;;;;;;-145.68;34.38;71109.94;10578047;28;20282;-73
2023/06/26 11:59:11;;;;;;;6.33;4.03;;;;;;;-145.68;34.75;71107.94;10577997;28;20193;-72
2023/06/26 12:04:12;;;;;;;4.75;4.13;;;;;;;-145.68;32.59;70904.19;10577372;28;20526;-72
2023/06/26 12:09:13;;;;;;;5.80;3.97;;;;;;;-145.68;34.41;71062.00;10576467;28;20677;-73
2023/06/26 12:14:14;;;;;;;9.68;4.38;;;;;;;-145.68;32.48;70874.25;10558066;28;20196;-73
2023/06/26 12:19:14;;;;;;;4.68;4.28;;;;;;;-145.68;30.54;70706.47;10558770;28;20306;-73
2023/06/26 12:24:16;;;;;;;5.50;4.15;;;;;;;-145.68;32.03;70978.13;10575173;28;20243;-73
2023/06/26 12:29:18;;;;;;;3.90;3.60;;;;;;;-145.68;31.34;70756.41;10557125;28;20236;-73
2023/06/26 12:34:21;;;;;;;8.75;4.85;;;;;;;-145.68;30.85;70602.59;10556626;28;20284;-72
2023/06/26 12:39:21;;;;;;;4.25;3.90;;;;;;;-145.68;29.49;70468.78;10574692;28;20693;-72
2023/06/26 12:44:29;;;;;;;5.05;4.28;;;;;;;-145.68;29.03;70544.66;10574662;28;20182;-73
2023/06/26 12:49:39;;;;;;;5.13;4.45;;;;;;;-145.68;31.64;70842.28;10573846;28;20200;-73
2023/06/26 12:54:41;;;;;;;4.57;4.18;;;;;;;-145.68;33.53;71060.00;10574151;28;20221;-72
2023/06/26 12:59:42;;;;;;;5.05;4.55;;;;;;;-145.68;32.79;70966.13;10573849;28;20193;-73
2023/06/26 13:04:44;;;;;;;7.85;4.93;;;;;;;-145.68;32.75;71070.00;10574519;28;20186;-72
2023/06/26 13:09:45;;;;;;;5.28;4.78;;;;;;;-145.68;32.49;70952.16;10562846;28;20190;-73
2023/06/26 13:14:46;;;;;;;5.90;4.90;;;;;;;-145.68;30.82;70640.53;10563800;28;20641;-74
2023/06/26 13:19:46;;;;;;;6.32;4.57;;;;;;;-145.68;31.08;70654.53;10559536;28;20179;-73
2023/06/26 13:24:48;;;;;;;11.90;4.93;;;;;;;-145.68;29.20;70552.66;10537129;28;20269;-74
2023/06/26 13:29:49;;;;;;;10.45;5.03;;;;;;;-145.68;28.06;70330.97;10531073;28;20658;-74
2023/06/26 13:34:49;;;;;;;5.43;4.70;;;;;;;-145.68;28.78;70408.84;10533350;28;20266;-73
2023/06/26 13:39:51;;;;;;;5.57;4.80;;;;;;;-145.68;27.52;70320.97;10556068;28;20300;-74
2023/06/26 13:44:51;;;;;;;5.53;5.00;;;;;;;-145.68;27.18;70283.03;10565939;28;20568;-74
2023/06/26 13:49:51;;;;;;;5.43;4.90;;;;;;;-145.68;30.41;70804.34;10573643;28;20238;-73
2023/06/26 13:54:52;;;;;;;6.03;4.93;;;;;;;-145.68;29.54;70650.53;10573149;28;20266;-74
2023/06/26 13:59:52;;;;;;;5.90;5.10;;;;;;;-145.68;29.98;70702.47;10574446;28;20448;-73
2023/06/26 14:04:53;;;;;;;5.23;4.73;;;;;;;-145.68;28.62;70350.94;10580947;28;20487;-74
2023/06/26 14:09:53;;;;;;;5.87;4.63;;;;;;;-145.68;28.27;70440.81;10561944;28;20442;-73
2023/06/26 14:14:53;;;;;;;5.67;4.60;;;;;;;-145.68;26.86;70133.25;10580363;28;20832;-74
2023/06/26 14:19:54;;;;;;;5.13;4.23;;;;;;;-145.68;27.37;70255.06;10580283;28;20465;-74
2023/06/26 14:24:54;;;;;;;7.10;5.00;;;;;;;-145.68;26.50;70113.28;10579100;28;20194;-73
2023/06/26 14:29:54;;;;;;;8.03;5.37;;;;;;;-145.68;29.99;70714.44;10579976;28;20290;-73
2023/06/26 14:34:55;;;;;;;6.47;4.77;;;;;;;-145.68;28.43;70512.72;10579233;28;20237;-73
2023/06/26 14:39:57;;;;;;;5.88;5.03;;;;;;;-145.68;28.19;70436.81;10578040;28;20459;-73
2023/06/26 14:44:57;;;;;;;6.18;4.60;;;;;;;-145.68;28.00;70267.06;10578325;28;20185;-73
2023/06/26 14:49:58;;;;;;;5.53;5.00;;;;;;;24.63;32.93;94509.13;10560862;28;20675;-73
2023/06/26 14:54:59;;;;;;;5.87;4.57;;;;;;;28.39;32.97;94993.13;10579329;28;20808;-74
2023/06/26 14:59:59;;;;;;;5.05;4.28;;;;;;;30.32;30.59;95206.41;10577821;28;21253;-73
2023/06/26 15:05:00;;;;;;;5.23;4.67;;;;;;;30.80;32.47;95296.50;10559228;28;20194;-73
2023/06/26 15:10:00;;;;;;;5.33;4.83;;;;;;;30.30;32.98;95292.41;10577615;28;20447;-73
2023/06/26 15:15:58;;;;;;;6.38;5.50;;;;;;;29.68;33.88;95345.50;10575168;28;20553;-74
2023/06/26 15:20:58;;;;;;;5.45;4.95;;;;;;;28.94;34.85;95371.13;10570200;27;20246;-73
2023/06/26 15:25:58;;;;;;;5.30;4.80;;;;;;;31.93;32.77;95449.69;10597394;27;20288;-73
2023/06/26 15:30:59;;;;;;;5.67;5.10;;;;;;;33.23;30.67;95458.16;10597425;27;20446;-73
2023/06/26 15:36:03;;;;;;;6.63;4.80;;;;;;;32.22;31.57;95451.63;10576237;28;21002;-73
2023/06/26 15:41:03;;;;;;;5.20;4.70;;;;;;;31.88;32.79;95482.38;10551934;28;20214;-73
2023/06/26 15:46:06;;;;;;;6.13;5.15;;;;;;;28.90;37.13;95488.75;10537187;28;20178;-73
2023/06/26 15:51:06;;;;;;;5.75;5.25;;;;;;;28.25;38.70;95506.78;10537042;28;20306;-74
2023/06/26 15:56:08;;;;;;;6.80;5.10;;;;;;;27.67;40.24;95533.13;10536915;28;20981;-74
2023/06/26 16:01:09;;;;;;;7.93;5.30;;;;;;;26.88;42.56;95571.38;10566353;28;20320;-73
2023/06/26 16:06:10;;;;;;;6.00;5.43;;;;;;;26.96;43.45;95604.88;10578275;28;20220;-73
2023/06/26 16:11:11;;;;;;;7.22;5.50;;;;;;;26.50;44.87;95638.44;10578339;28;20197;-73
2023/06/26 16:16:12;;;;;;;23.13;5.50;;;;;;;24.21;52.21;95746.19;10559369;28;20209;-73
2023/06/26 16:21:12;;;;;;;20.45;6.38;;;;;;;23.01;58.59;95763.97;10576877;28;20231;-73
2023/06/26 16:26:13;;;;;;;17.00;6.88;;;;;;;22.23;60.90;95706.56;10576557;28;20189;-73
2023/06/26 16:31:13;;;;;;;9.55;6.97;;;;;;;21.17;64.60;95625.38;10576232;28;20772;-73
2023/06/26 16:36:14;;;;;;;9.15;6.78;;;;;;;18.63;69.46;95331.72;10576563;28;20685;-73
2023/06/26 16:41:14;;;;;;;10.55;6.55;;;;;;;16.05;71.93;94956.56;10557808;28;20212;-73
2023/06/26 16:46:15;;;;;;;8.95;7.13;;;;;;;12.10;75.36;94474.97;10574931;28;20182;-73
2023/06/26 16:51:15;;;;;;;11.32;7.55;;;;;;;-2.32;82.28;92395.72;10575956;28;20646;-73
2023/06/26 16:56:15;;;;;;;11.38;7.60;;;;;;;-145.68;69.16;72262.72;10576797;28;20689;-73
2023/06/26 17:01:16;;;;;;;12.15;7.10;;;;;;;-145.68;65.46;72238.75;10576713;28;20558;-72
2023/06/26 17:06:16;;;;;;;9.50;7.18;;;;;;;-145.68;67.65;72296.69;10576311;28;20211;-73
2023/06/26 17:11:16;;;;;;;10.70;6.63;;;;;;;-145.68;64.94;72274.72;10558218;28;20182;-73
2023/06/26 17:16:17;;;;;;;9.68;6.43;;;;;;;-145.68;65.02;72260.72;10576411;28;20229;-73
2023/06/26 17:21:17;;;;;;;14.00;7.72;;;;;;;-145.68;68.28;72324.69;10576171;28;20272;-73
2023/06/26 17:26:19;;;;;;;12.23;8.25;;;;;;;-145.68;68.70;72312.69;10576348;28;20181;-73
2023/06/26 17:31:20;;;;;;;13.98;7.70;;;;;;;-145.68;73.03;72374.63;10575446;28;20225;-73
2023/06/26 17:36:20;;;;;;;11.80;8.85;;;;;;;-145.68;73.00;72368.63;10580780;28;20218;-73
2023/06/26 17:41:21;;;;;;;12.90;9.68;;;;;;;-145.68;76.91;72486.53;10584322;28;20220;-73
2023/06/26 17:52:24;;;;;;;15.52;8.93;;;;;;;-145.68;78.29;72404.59;10583406;28;20901;-73
2023/06/26 17:57:25;;;;;;;12.85;9.18;;;;;;;-145.68;76.90;72406.59;10583636;28;20274;-72
2023/06/26 18:02:25;;;;;;;17.60;9.40;;;;;;;-145.68;80.36;72482.53;10583610;28;20198;-72
2023/06/26 18:07:25;;;;;;;15.27;9.50;;;;;;;-145.68;82.19;72486.53;10583644;28;20745;-72
2023/06/26 18:12:26;;;;;;;12.82;9.02;;;;;;;-145.68;81.36;72478.53;10583142;28;20189;-72
2023/06/26 18:17:27;;;;;;;9.77;8.77;;;;;;;-145.68;81.38;72448.56;10582936;28;20286;-72
2023/06/26 18:22:27;;;;;;;12.13;8.68;;;;;;;-145.68;80.27;72436.56;10582700;28;20654;-72
2023/06/26 18:27:34;;;;;;;15.52;9.63;;;;;;;-145.68;79.46;72452.56;10582902;28;20725;-72
2023/06/26 18:32:35;;;;;;;12.70;9.40;;;;;;;-145.68;80.40;72476.53;10581334;28;20229;-72
2023/06/26 18:37:35;;;;;;;10.38;8.73;;;;;;;-145.68;80.58;72468.56;10582184;28;20350;-72
2023/06/26 18:42:35;;;;;;;13.77;9.20;;;;;;;-145.68;83.64;72500.53;10581219;28;20190;-72
2023/06/26 18:47:36;;;;;;;12.05;9.95;;;;;;;-145.68;90.31;72560.47;10580843;28;20242;-72
2023/06/26 18:52:36;;;;;;;13.05;10.65;;;;;;;-145.68;100.00;72630.41;10581560;28;20182;-72
2023/06/26 18:57:37;;;;;;;16.17;11.68;;;;;;;-145.68;100.00;72678.38;10563305;28;20308;-72
2023/06/26 19:02:37;;;;;;;16.80;12.50;;;;;;;-145.68;100.00;72710.34;10581480;28;20200;-72
2023/06/26 19:07:37;;;;;;;16.42;12.48;;;;;;;-145.68;100.00;72734.31;10581034;28;20178;-72
2023/06/26 19:12:38;;;;;;;14.77;12.90;;;;;;;-145.68;100.00;72768.31;10580877;28;20190;-72
2023/06/26 19:17:38;;;;;;;17.33;13.90;;;;;;;-145.68;100.00;72796.28;10577840;28;20232;-72
2023/06/26 19:22:41;;;;;;;15.00;11.70;;;;;;;-145.68;100.00;72818.25;10579194;28;20189;-72
2023/06/26 19:27:43;;;;;;;15.75;11.38;;;;;;;-145.68;100.00;72866.22;10575459;28;20193;-72
2023/06/26 19:32:43;;;;;;;14.00;11.48;;;;;;;-145.68;100.00;72876.22;10577671;28;20301;-72
2023/06/26 19:37:43;;;;;;;14.27;11.63;;;;;;;-145.68;100.00;72884.22;10579014;28;20228;-73
2023/06/26 19:42:44;;;;;;;12.90;11.60;;;;;;;-145.68;100.00;72854.25;10578422;28;20616;-73
2023/06/26 19:47:44;;;;;;;15.18;11.13;;;;;;;-145.68;100.00;72840.25;10579393;28;20186;-73
2023/06/26 19:52:44;;;;;;;14.88;10.63;;;;;;;-145.68;100.00;72838.25;10577739;28;20186;-73
2023/06/26 19:57:46;;;;;;;14.35;10.45;;;;;;;-145.68;100.00;72828.25;10578262;28;20262;-73
2023/06/26 20:02:46;;;;;;;13.73;11.05;;;;;;;-145.68;100.00;72876.22;10577992;28;20182;-73
2023/06/26 20:07:47;;;;;;;13.05;10.93;;;;;;;-145.68;100.00;72874.22;10577768;28;20673;-73
2023/06/26 20:12:47;;;;;;;13.85;11.20;;;;;;;-145.68;100.00;72880.22;10558941;28;20574;-73
2023/06/26 20:17:47;;;;;;;15.40;11.07;;;;;;;-145.68;100.00;72888.22;10577497;28;20214;-73
2023/06/26 20:22:48;;;;;;;13.38;10.30;;;;;;;-145.68;100.00;72898.19;10577133;28;20665;-72
2023/06/26 20:27:48;;;;;;;15.73;9.68;;;;;;;-145.68;100.00;72916.19;10577070;28;20189;-72
2023/06/26 20:32:48;;;;;;;12.00;10.77;;;;;;;-145.68;100.00;72942.16;10576591;28;20287;-72
2023/06/26 20:37:49;;;;;;;11.77;10.57;;;;;;;-145.68;100.00;72940.16;10576406;28;20232;-72
2023/06/26 20:42:49;;;;;;;15.85;10.32;;;;;;;-145.68;100.00;72924.19;10576436;28;20673;-74
2023/06/26 20:47:50;;;;;;;13.88;10.93;;;;;;;-145.68;100.00;72906.19;10576721;28;20667;-74
2023/06/26 20:52:51;;;;;;;19.05;11.57;;;;;;;-145.68;100.00;72920.19;10576113;28;20214;-74
2023/06/26 20:57:51;;;;;;;14.10;10.70;;;;;;;-145.68;100.00;72918.19;10576694;28;20308;-74
2023/06/26 21:02:51;;;;;;;13.38;10.90;;;;;;;-145.68;100.00;72906.19;10575936;28;20186;-72
2023/06/26 21:07:52;;;;;;;14.32;10.20;;;;;;;-145.68;100.00;72902.19;10558217;28;20285;-72
2023/06/26 21:12:52;;;;;;;12.80;10.45;;;;;;;-145.68;100.00;72894.22;10575000;28;20197;-72
2023/06/26 21:17:52;;;;;;;13.85;10.20;;;;;;;-145.68;100.00;72904.19;10576312;28;20232;-72
2023/06/26 21:22:53;;;;;;;13.68;10.18;;;;;;;-145.68;100.00;72914.19;10575643;28;20190;-72
2023/06/26 21:27:53;;;;;;;15.75;11.25;;;;;;;-145.68;100.00;72914.19;10557656;28;20182;-73
2023/06/26 21:32:54;;;;;;;15.10;10.40;;;;;;;-145.68;100.00;72912.19;10574164;28;20230;-72
2023/06/26 21:37:54;;;;;;;18.00;10.77;;;;;;;-145.68;100.00;72944.16;10573730;28;20214;-72
2023/06/26 21:42:55;;;;;;;14.20;11.18;;;;;;;-145.68;100.00;72942.16;10574969;28;20197;-72
2023/06/26 21:47:55;;;;;;;13.95;11.52;;;;;;;-145.68;100.00;72974.16;10575709;28;20174;-72
2023/06/26 21:52:55;;;;;;;13.73;11.45;;;;;;;-145.68;100.00;73022.13;10575411;28;20189;-72
2023/06/26 21:57:56;;;;;;;19.45;11.20;;;;;;;-145.68;100.00;73024.13;10575390;28;20210;-72
2023/06/26 22:02:56;;;;;;;17.30;12.15;;;;;;;-145.68;100.00;73006.13;10575251;28;20186;-74
2023/06/26 22:07:56;;;;;;;14.93;12.70;;;;;;;-145.68;100.00;73012.13;10575605;28;20180;-72
2023/06/26 22:12:57;;;;;;;21.45;12.88;;;;;;;-145.68;100.00;73060.09;10575000;28;20194;-74
2023/06/26 22:17:57;;;;;;;19.50;14.13;;;;;;;-145.68;100.00;73118.03;10575207;28;20681;-75
2023/06/26 22:22:57;;;;;;;18.80;14.25;;;;;;;-145.68;100.00;73156.00;10580074;28;20204;-76
2023/06/26 22:27:58;;;;;;;18.90;15.85;;;;;;;-145.68;100.00;73156.00;10583044;28;20197;-76
2023/06/26 22:32:58;;;;;;;23.52;16.70;;;;;;;-145.68;100.00;73180.00;10582066;28;20233;-75
2023/06/26 22:37:59;;;;;;;18.50;15.68;;;;;;;-145.68;100.00;73186.00;10582486;28;20258;-75
2023/06/26 22:42:59;;;;;;;26.75;17.77;;;;;;;-145.68;100.00;73219.97;10564039;28;20186;-75
2023/06/26 22:47:59;;;;;;;21.35;16.05;;;;;;;-145.68;100.00;73211.97;10580967;28;20185;-75